createdAt,value
2019-03-28T00:02:55.499Z,8.80
2019-03-28T00:07:51.467Z,8.00
2019-03-28T00:12:48.363Z,7.40
2019-03-28T00:17:44.293Z,9.30
2019-03-28T00:22:45.165Z,8.53
2019-03-28T00:27:41.166Z,8.10
2019-03-28T00:32:37.225Z,7.73
2019-03-28T00:37:33.179Z,9.00
2019-03-28T00:42:29.095Z,8.73
2019-03-28T00:47:25.079Z,9.37
2019-03-28T00:52:21.033Z,9.10
2019-03-28T00:57:17.039Z,9.10
2019-03-28T01:02:12.981Z,8.60
2019-03-28T01:07:08.984Z,8.70
2019-03-28T01:12:04.975Z,8.67
2019-03-28T01:17:00.962Z,8.03
2019-03-28T01:21:56.985Z,9.67
2019-03-28T01:26:57.603Z,8.67
2019-03-28T01:31:51.011Z,8.97
2019-03-28T01:36:46.967Z,8.40
2019-03-28T01:41:42.924Z,9.60
2019-03-28T01:46:38.837Z,8.57
2019-03-28T01:51:34.893Z,8.97
2019-03-28T01:56:30.899Z,9.23
2019-03-28T02:01:26.831Z,9.60
2019-03-28T02:06:22.874Z,8.33
2019-03-28T02:11:18.929Z,8.67
2019-03-28T02:16:14.972Z,8.73
2019-03-28T02:21:10.960Z,9.00
2019-03-28T02:26:07.005Z,9.00
2019-03-28T02:31:03.041Z,8.87
2019-03-28T02:35:59.061Z,8.50
2019-03-28T02:40:55.118Z,9.13
2019-03-28T02:45:52.462Z,8.90
2019-03-28T02:50:48.429Z,9.53
2019-03-28T02:55:44.549Z,9.07
2019-03-28T03:00:41.626Z,10.10
2019-03-28T03:05:38.334Z,8.20
2019-03-28T03:10:34.814Z,9.10
2019-03-28T03:15:31.334Z,9.80
2019-03-28T03:20:27.327Z,9.13
2019-03-28T03:25:23.465Z,9.10
2019-03-28T03:30:19.528Z,8.97
2019-03-28T03:35:16.538Z,9.33
2019-03-28T03:40:14.464Z,8.97
2019-03-28T03:45:10.451Z,10.60
2019-03-28T03:50:06.737Z,13.30
2019-03-28T03:55:05.122Z,12.70
2019-03-28T04:00:01.017Z,12.47
2019-03-28T04:04:57.058Z,12.67
2019-03-28T04:09:53.044Z,11.83
2019-03-28T04:14:48.952Z,11.30
2019-03-28T04:19:44.883Z,12.60
2019-03-28T04:24:41.480Z,12.97
2019-03-28T04:29:37.378Z,13.83
2019-03-28T04:34:33.310Z,11.40
2019-03-28T04:39:29.327Z,11.90
2019-03-28T04:44:25.243Z,13.43
2019-03-28T04:49:21.159Z,15.73
2019-03-28T04:54:19.582Z,15.83
2019-03-28T04:59:15.641Z,13.80
2019-03-28T05:04:11.549Z,14.03
2019-03-28T05:09:07.459Z,15.40
2019-03-28T05:14:03.372Z,17.70
2019-03-28T05:18:59.993Z,16.27
2019-03-28T05:23:56.797Z,15.03
2019-03-28T05:28:58.016Z,17.70
2019-03-28T05:33:57.086Z,16.20
2019-03-28T05:38:54.315Z,14.73
2019-03-28T05:43:51.601Z,15.13
2019-03-28T05:48:50.819Z,14.27
2019-03-28T05:53:48.834Z,15.93
2019-03-28T05:58:45.520Z,14.73
2019-03-28T06:03:42.470Z,14.60
2019-03-28T06:08:39.872Z,15.17
2019-03-28T06:13:36.965Z,15.13
2019-03-28T06:18:35.032Z,16.13
2019-03-28T06:23:32.325Z,16.33
2019-03-28T06:28:29.122Z,15.20
2019-03-28T06:33:25.732Z,14.70
2019-03-28T06:38:27.470Z,13.17
2019-03-28T06:43:24.290Z,15.27
2019-03-28T06:48:22.136Z,13.40
2019-03-28T06:53:19.057Z,16.17
2019-03-28T06:58:17.068Z,12.93
2019-03-28T07:03:15.128Z,14.50
2019-03-28T07:08:12.847Z,15.07
2019-03-28T07:13:10.335Z,15.30
2019-03-28T07:18:07.067Z,14.63
2019-03-28T07:23:03.463Z,15.77
2019-03-28T07:28:00.133Z,14.17
2019-03-28T07:32:56.672Z,13.17
2019-03-28T07:37:53.088Z,13.77
2019-03-28T07:42:50.558Z,11.80
2019-03-28T07:47:47.126Z,10.97
2019-03-28T07:52:48.302Z,11.77
2019-03-28T07:57:44.951Z,10.87
2019-03-28T08:02:41.803Z,11.27
2019-03-28T08:07:45.067Z,10.23
2019-03-28T08:12:37.059Z,11.00
2019-03-28T08:17:34.309Z,11.27
2019-03-28T08:22:32.942Z,10.17
2019-03-28T08:27:31.310Z,10.70
2019-03-28T08:32:28.499Z,10.10
2019-03-28T08:37:25.544Z,11.00
2019-03-28T08:42:22.370Z,10.77
2019-03-28T08:47:21.098Z,11.30
2019-03-28T08:52:17.564Z,10.23
2019-03-28T08:57:14.661Z,10.37
2019-03-28T09:02:11.276Z,7.37
2019-03-28T09:07:07.853Z,7.17
2019-03-28T09:12:04.481Z,4.73
2019-03-28T09:17:01.061Z,6.60
2019-03-28T09:21:59.607Z,6.80
2019-03-28T09:26:59.675Z,7.37
2019-03-28T09:31:57.540Z,6.77
2019-03-28T09:36:54.380Z,6.20
2019-03-28T09:41:54.407Z,6.77
2019-03-28T09:46:51.097Z,9.53
2019-03-28T09:51:47.865Z,7.13
2019-03-28T09:56:47.303Z,4.47
2019-03-28T10:01:43.962Z,5.10
2019-03-28T10:06:40.632Z,5.67
2019-03-28T10:11:37.225Z,8.00
2019-03-28T10:16:35.652Z,7.47
2019-03-28T10:21:32.597Z,5.30
2019-03-28T10:26:30.615Z,5.17
2019-03-28T10:31:27.598Z,7.40
2019-03-28T10:36:27.592Z,5.50
2019-03-28T10:41:25.693Z,7.83
2019-03-28T10:46:21.351Z,5.47
2019-03-28T10:51:18.144Z,4.30
2019-03-28T10:56:21.900Z,4.70
2019-03-28T11:01:16.507Z,3.90
2019-03-28T11:06:12.199Z,1.53
2019-03-28T11:11:08.968Z,2.00
2019-03-28T11:16:05.881Z,1.93
2019-03-28T11:21:03.247Z,3.40
2019-03-28T11:26:00.078Z,3.77
2019-03-28T11:30:56.548Z,2.97
2019-03-28T11:35:53.019Z,4.17
2019-03-28T11:40:49.916Z,4.80
2019-03-28T11:45:46.618Z,4.73
2019-03-28T11:50:42.627Z,4.37
2019-03-28T11:55:38.604Z,3.53
2019-03-28T12:00:34.613Z,3.97
2019-03-28T12:05:30.570Z,4.30
2019-03-28T12:10:26.458Z,3.83
2019-03-28T12:15:22.375Z,4.93
2019-03-28T12:20:18.288Z,4.67
2019-03-28T12:25:14.202Z,4.80
2019-03-28T12:30:11.832Z,3.97
2019-03-28T12:35:08.845Z,4.50
2019-03-28T12:40:05.859Z,5.00
2019-03-28T12:45:03.775Z,6.33
2019-03-28T12:49:59.699Z,4.27
2019-03-28T12:54:56.342Z,4.43
2019-03-28T12:59:53.689Z,5.40
2019-03-28T13:04:49.872Z,5.73
2019-03-28T13:09:45.788Z,4.80
2019-03-28T13:14:41.708Z,4.83
2019-03-28T13:19:37.620Z,4.77
2019-03-28T13:24:34.248Z,4.30
2019-03-28T13:29:30.355Z,6.40
2019-03-28T13:34:26.938Z,4.77
2019-03-28T13:39:23.086Z,5.40
2019-03-28T13:44:19.015Z,5.20
2019-03-28T13:49:15.015Z,5.37
2019-03-28T13:54:17.662Z,4.13
2019-03-28T13:59:13.691Z,5.30
2019-03-28T14:04:09.601Z,4.80
2019-03-28T14:09:06.114Z,5.57
2019-03-28T14:14:02.039Z,5.80
2019-03-28T14:18:57.921Z,5.93
2019-03-28T14:23:53.913Z,5.40
2019-03-28T14:28:50.423Z,5.67
2019-03-28T14:33:46.575Z,5.00
2019-03-28T14:38:42.485Z,6.30
2019-03-28T14:43:38.414Z,6.47
2019-03-28T14:48:34.495Z,6.20
2019-03-28T14:53:30.446Z,5.93
2019-03-28T14:58:26.784Z,5.27
2019-03-28T15:03:27.239Z,5.20
2019-03-28T15:08:22.131Z,6.03
2019-03-28T15:13:18.068Z,5.00
2019-03-28T15:18:17.804Z,5.33
2019-03-28T15:23:16.264Z,5.10
2019-03-28T15:28:15.301Z,5.83
2019-03-28T15:33:12.005Z,6.23
2019-03-28T15:38:11.652Z,5.50
2019-03-28T15:43:07.710Z,4.83
2019-03-28T15:48:03.736Z,5.07
2019-03-28T15:52:59.705Z,4.90
2019-03-28T15:57:55.673Z,4.77
2019-03-28T16:02:51.590Z,5.00
2019-03-28T16:07:47.830Z,5.77
2019-03-28T16:12:44.473Z,5.23
2019-03-28T16:17:40.484Z,4.80
2019-03-28T16:22:37.708Z,5.00
2019-03-28T16:27:33.884Z,5.50
2019-03-28T16:32:29.795Z,5.00
2019-03-28T16:37:25.726Z,4.43
2019-03-28T16:42:21.636Z,5.47
2019-03-28T16:47:17.548Z,4.90
2019-03-28T16:52:13.490Z,4.83
2019-03-28T16:57:09.427Z,4.57
2019-03-28T17:02:05.339Z,5.07
2019-03-28T17:07:01.263Z,4.50
2019-03-28T17:11:57.173Z,5.00
2019-03-28T17:16:53.097Z,5.60
2019-03-28T17:21:49.053Z,5.03
2019-03-28T17:26:45.035Z,5.27
2019-03-28T17:31:40.948Z,4.80
2019-03-28T17:36:37.026Z,7.10
2019-03-28T17:41:35.672Z,6.30
2019-03-28T17:46:32.563Z,6.10
2019-03-28T17:51:28.539Z,5.10
2019-03-28T17:56:24.461Z,5.93
2019-03-28T18:01:20.483Z,5.60
2019-03-28T18:06:16.410Z,5.53
2019-03-28T18:11:12.302Z,5.97
2019-03-28T18:16:09.820Z,4.73
2019-03-28T18:21:05.731Z,5.30
2019-03-28T18:26:02.124Z,5.20
2019-03-28T18:30:58.031Z,6.37
2019-03-28T18:35:53.949Z,5.50
2019-03-28T18:40:49.880Z,5.70
2019-03-28T18:45:45.792Z,5.37
2019-03-28T18:50:41.811Z,5.93
2019-03-28T18:55:38.498Z,6.50
2019-03-28T19:00:34.490Z,5.10
2019-03-28T19:05:30.426Z,5.87
2019-03-28T19:10:26.333Z,6.03
2019-03-28T19:15:22.304Z,6.10
2019-03-28T19:20:18.367Z,6.10
2019-03-28T19:25:16.316Z,5.80
2019-03-28T19:30:12.874Z,5.37
2019-03-28T19:35:09.153Z,6.37
2019-03-28T19:40:08.429Z,5.53
2019-03-28T19:45:04.944Z,5.60
2019-03-28T19:50:00.962Z,6.70
2019-03-28T19:55:03.077Z,7.27
2019-03-28T19:59:59.207Z,6.63
2019-03-28T20:04:55.312Z,8.37
2019-03-28T20:09:51.230Z,7.60
2019-03-28T20:14:48.418Z,8.17
2019-03-28T20:19:44.381Z,7.03
2019-03-28T20:24:45.063Z,5.93
2019-03-28T20:29:42.406Z,6.03
2019-03-28T20:34:38.431Z,6.37
2019-03-28T20:39:34.379Z,7.50
2019-03-28T20:44:30.290Z,6.20
2019-03-28T20:49:26.306Z,6.63
2019-03-28T20:54:25.036Z,6.60
2019-03-28T20:59:21.198Z,7.53
2019-03-28T21:04:30.275Z,6.70
2019-03-28T21:09:14.927Z,7.50
2019-03-28T21:14:10.847Z,7.73
2019-03-28T21:19:06.757Z,7.90
2019-03-28T21:24:10.506Z,8.97
2019-03-28T21:29:06.453Z,8.03
2019-03-28T21:34:02.467Z,7.50
2019-03-28T21:38:58.382Z,8.47
2019-03-28T21:43:54.290Z,7.73
2019-03-28T21:48:50.216Z,8.17
2019-03-28T21:53:46.967Z,7.30
2019-03-28T21:58:43.002Z,8.03
2019-03-28T22:03:39.995Z,7.70
2019-03-28T22:08:36.048Z,7.40
2019-03-28T22:13:31.959Z,8.97
2019-03-28T22:18:27.884Z,8.00
2019-03-28T22:23:23.956Z,7.73
2019-03-28T22:28:19.859Z,7.40
2019-03-28T22:33:15.907Z,9.43
2019-03-28T22:38:12.032Z,7.10
2019-03-28T22:43:07.950Z,8.63
2019-03-28T22:48:10.740Z,7.90
2019-03-28T22:53:01.818Z,8.30
2019-03-28T22:57:57.761Z,7.30
2019-03-28T23:02:54.848Z,8.23
2019-03-28T23:07:51.000Z,7.80
2019-03-28T23:12:46.987Z,7.33
2019-03-28T23:17:42.903Z,8.23
2019-03-28T23:22:38.819Z,7.90
2019-03-28T23:27:34.729Z,8.90
2019-03-28T23:32:30.725Z,8.30
2019-03-28T23:37:26.912Z,8.57
2019-03-28T23:42:23.085Z,9.30
2019-03-28T23:47:18.996Z,8.37
2019-03-28T23:52:14.981Z,9.60
2019-03-28T23:57:10.923Z,8.87
